Currently 87°F in Murrieta, California, USA
87°F
88°F / 47°F
5 mph SE
0.00"
Saturday, November 16, 2019 1:47 PM PST

Murrieta, California Weather Summary
Last 36 Hours

Temperature Winds Hourly Humidity Dewpoint
Time Report Norm Report Norm Max Gusts Precip. Rpt. Norm Rpt. Norm Pressure
1Sat 01:47 PM  86.5°F  74°F  5 mph SE  5 mph  9 mph  0.00"  13%  36%  29°F  44°F  29.95"
Sat 01:00 PM  86.3°F  74°F  calm  4 mph  12 mph  0.00"  8%  36%  15°F  44°F  29.95"
2Sat 12:43 PM  87.7°F  74°F  calm  4 mph  11 mph  ----  N/A  36%  N/A°F  44°F  29.96"
Sat 12:00 PM  85.4°F  73°F  5 mph SW  3 mph  10 mph  0.00"  N/A  38%  N/A°F  45°F  29.98"
Sat 11:00 AM  82.4°F  70°F  2 mph SE  3 mph  11 mph  0.00"  21%  43%  37°F  46°F  30.03"
Sat 10:00 AM  75.8°F  66°F  calm  2 mph  10 mph  0.00"  30%  52%  41°F  47°F  30.04"
Sat 09:00 AM  64.0°F  59°F  calm  2 mph  none  0.00"  72%  64%  54°F  47°F  30.05"
Sat 08:00 AM  51.8°F  53°F  calm  1 mph  none  0.00"  96%  74%  50°F  45°F  30.04"
Sat 07:00 AM  47.4°F  49°F  calm  1 mph  none  0.00"  96%  79%  46°F  42°F  30.04"
3Sat 06:51 AM  47.0°F  48°F  calm  1 mph  none  ----  96%  79%  46°F  42°F  30.04"
Sat 06:00 AM  47.5°F  48°F  calm  1 mph  1 mph  0.00"  95%  78%  46°F  41°F  30.02"
Sat 05:00 AM  48.8°F  49°F  calm  1 mph  4 mph  0.00"  95%  77%  47°F  42°F  30.01"
Sat 04:00 AM  48.9°F  49°F  calm  1 mph  3 mph  0.00"  95%  75%  47°F  42°F  30.00"
Sat 03:00 AM  49.8°F  50°F  calm  1 mph  none  0.00"  93%  73%  48°F  42°F  30.02"
Sat 02:00 AM  50.6°F  51°F  calm  1 mph  none  0.00"  93%  72%  48°F  42°F  30.03"
Sat 01:00 AM  51.2°F  52°F  calm  1 mph  none  0.00"  91%  71%  49°F  42°F  30.04"
Sat 12:00 AM  52.9°F  53°F  calm  1 mph  none  0.00"  89%  69%  49°F  42°F  30.04"
Fri 11:00 PM  54.6°F  54°F  calm  1 mph  none  0.00"  88%  67%  51°F  43°F  30.04"
Fri 10:00 PM  55.5°F  55°F  calm  1 mph  none  0.00"  87%  66%  52°F  43°F  30.05"
Fri 09:00 PM  56.5°F  56°F  calm  1 mph  4 mph  0.00"  83%  65%  51°F  44°F  30.04"
Fri 08:00 PM  58.7°F  58°F  calm  2 mph  3 mph  0.00"  82%  62%  53°F  44°F  30.04"
Fri 07:00 PM  59.6°F  60°F  calm  2 mph  3 mph  0.00"  78%  59%  53°F  45°F  30.04"
Fri 06:00 PM  62.2°F  62°F  calm  3 mph  9 mph  0.00"  74%  55%  53°F  45°F  30.03"
Fri 05:00 PM  64.7°F  66°F  4 mph SW  4 mph  12 mph  0.00"  70%  50%  54°F  46°F  30.02"
Fri 04:00 PM  69.1°F  69°F  6 mph W  5 mph  15 mph  0.00"  61%  44%  55°F  46°F  30.02"
Fri 03:00 PM  75.7°F  73°F  2 mph S  5 mph  11 mph  0.00"  42%  38%  50°F  45°F  30.01"
Fri 02:00 PM  77.4°F  74°F  calm  5 mph  10 mph  0.00"  38%  35%  49°F  44°F  30.03"
Fri 01:00 PM  74.3°F  74°F  calm  4 mph  none  0.00"  41%  35%  48°F  44°F  30.05"
Fri 12:00 PM  73.0°F  73°F  calm  4 mph  9 mph  0.00"  49%  37%  52°F  44°F  30.09"
Fri 11:00 AM  71.6°F  71°F  2 mph E  3 mph  8 mph  0.00"  50%  42%  52°F  45°F  30.11"
Fri 10:00 AM  66.0°F  66°F  calm  2 mph  5 mph  0.00"  61%  51%  51°F  46°F  30.14"
Fri 09:00 AM  61.5°F  60°F  calm  2 mph  6 mph  0.00"  68%  63%  51°F  46°F  30.14"
Fri 08:00 AM  54.6°F  53°F  calm  1 mph  none  0.00"  82%  74%  49°F  45°F  30.14"
Fri 07:00 AM  47.7°F  49°F  calm  1 mph  none  0.00"  92%  78%  45°F  42°F  30.14"
Fri 06:00 AM  46.9°F  48°F  calm  1 mph  3 mph  0.00"  91%  77%  44°F  41°F  30.14"
Fri 05:00 AM  48.2°F  49°F  calm  1 mph  3 mph  0.00"  89%  76%  45°F  41°F  30.14"
Fri 04:00 AM  49.9°F  49°F  calm  1 mph  2 mph  0.00"  89%  75%  47°F  41°F  30.12"
Fri 03:00 AM  51.1°F  50°F  calm  1 mph  2 mph  0.00"  88%  73%  47°F  41°F  30.12"
Fri 02:00 AM  52.9°F  51°F  calm  1 mph  4 mph  0.00"  86%  72%  49°F  42°F  30.14"

  1. Current weather data. No green row appears if the current weather data is also the high or low for the current day.
  2. High temperature for the current day.
  3. Low temperature for the current day.

The Murrieta weather pages are a service of WeatherCurrents. Murrieta, California is located in the Temecula Valley, in southwestern Riverside County, at the junctions of the Interstate 15 and 215 highways.
Copyright ©2019  WeatherCurrents. All rights reserved. - Submit questions and comments - Privacy Policy

This page automatically refreshes every 10 minutes.